Time,TemperatureF,DewpointF,PressureIn,WindDirection,WindDirectionDegrees,WindSpeedMPH,WindSpeedGustMPH,Humidity,HourlyPrecipIn,Conditions,Clouds,dailyrainin,SoftwareType,DateUTC
2013-04-06 00:07:00,29.9,16.0,29.94,SW,217,7.0,10.0,57,0.00,,,0.00,weatherlink.com 1.10,2013-04-06 04:07:00,
2013-04-06 00:22:00,29.4,14.0,29.95,SSE,153,9.0,9.0,54,0.00,,,0.00,weatherlink.com 1.10,2013-04-06 04:22:00,
2013-04-06 00:37:00,29.1,14.0,29.95,SSE,163,5.0,13.0,53,0.00,,,0.00,weatherlink.com 1.10,2013-04-06 04:37:00,
2013-04-06 00:52:00,28.9,14.0,29.96,SSE,166,1.0,11.0,55,0.00,,,0.00,weatherlink.com 1.10,2013-04-06 04:52:00,
2013-04-06 01:08:00,28.7,13.0,29.96,SSW,202,2.0,9.0,52,0.00,,,0.00,weatherlink.com 1.10,2013-04-06 05:08:00,
2013-04-06 01:23:00,28.3,13.0,29.97,South,184,3.0,10.0,53,0.00,,,0.00,weatherlink.com 1.10,2013-04-06 05:23:00,
2013-04-06 01:38:00,27.9,13.0,29.98,SE,134,3.0,13.0,53,0.00,,,0.00,weatherlink.com 1.10,2013-04-06 05:38:00,
2013-04-06 01:53:00,27.5,12.0,29.98,SSW,204,4.0,10.0,52,0.00,,,0.00,weatherlink.com 1.10,2013-04-06 05:53:00,
2013-04-06 02:08:00,27.2,11.0,29.98,SW,220,3.0,8.0,51,0.00,,,0.00,weatherlink.com 1.10,2013-04-06 06:08:00,
2013-04-06 02:23:00,26.9,11.0,29.99,SW,235,1.0,13.0,52,0.00,,,0.00,weatherlink.com 1.10,2013-04-06 06:23:00,
2013-04-06 02:38:00,26.6,11.0,30.00,SSW,200,7.0,10.0,52,0.00,,,0.00,weatherlink.com 1.10,2013-04-06 06:38:00,
2013-04-06 02:53:00,26.3,12.0,30.00,SW,221,5.0,12.0,54,0.00,,,0.00,weatherlink.com 1.10,2013-04-06 06:53:00,
2013-04-06 03:08:00,25.9,12.0,30.02,WSW,242,7.0,10.0,55,0.00,,,0.00,weatherlink.com 1.10,2013-04-06 07:08:00,
2013-04-06 03:23:00,25.5,12.0,30.03,South,182,4.0,10.0,56,0.00,,,0.00,weatherlink.com 1.10,2013-04-06 07:23:00,
2013-04-06 03:38:00,25.0,10.0,30.03,SW,215,3.0,20.0,54,0.00,,,0.00,weatherlink.com 1.10,2013-04-06 07:38:00,
2013-04-06 03:53:00,24.7,11.0,30.04,NNW,327,2.0,10.0,56,0.00,,,0.00,weatherlink.com 1.10,2013-04-06 07:53:00,
2013-04-06 04:08:00,24.5,10.0,30.05,NE,56,1.0,14.0,55,0.00,,,0.00,weatherlink.com 1.10,2013-04-06 08:08:00,
2013-04-06 04:23:00,24.5,11.0,30.06,East,87,3.0,14.0,56,0.00,,,0.00,weatherlink.com 1.10,2013-04-06 08:23:00,
2013-04-06 04:38:00,24.5,11.0,30.07,South,173,3.0,15.0,56,0.00,,,0.00,weatherlink.com 1.10,2013-04-06 08:38:00,
2013-04-06 05:23:00,24.0,11.0,30.10,SW,216,1.0,10.0,58,0.00,,,0.00,weatherlink.com 1.10,2013-04-06 09:23:00,
2013-04-06 06:09:00,22.9,10.0,30.12,SSW,207,0.0,14.0,57,0.00,,,0.00,weatherlink.com 1.10,2013-04-06 10:09:00,
2013-04-06 06:24:00,22.4,9.0,30.13,SSW,212,10.0,10.0,57,0.00,,,0.00,weatherlink.com 1.10,2013-04-06 10:24:00,
2013-04-06 06:39:00,22.3,9.0,30.15,ESE,117,1.0,9.0,56,0.00,,,0.00,weatherlink.com 1.10,2013-04-06 10:39:00,
2013-04-06 06:54:00,22.2,8.0,30.15,SE,140,3.0,10.0,55,0.00,,,0.00,weatherlink.com 1.10,2013-04-06 10:54:00,
2013-04-06 07:09:00,22.4,8.0,30.18,WSW,246,2.0,12.0,55,0.00,,,0.00,weatherlink.com 1.10,2013-04-06 11:09:00,
2013-04-06 07:24:00,22.7,9.0,30.18,South,178,2.0,10.0,55,0.00,,,0.00,weatherlink.com 1.10,2013-04-06 11:24:00,
2013-04-06 07:39:00,23.1,9.0,30.19,SW,217,2.0,16.0,55,0.00,,,0.00,weatherlink.com 1.10,2013-04-06 11:39:00,
2013-04-06 07:54:00,23.2,9.0,30.20,SW,232,1.0,11.0,54,0.00,,,0.00,weatherlink.com 1.10,2013-04-06 11:54:00,
2013-04-06 08:27:00,24.7,8.0,30.21,West,277,3.0,8.0,50,0.00,,,0.00,weatherlink.com 1.10,2013-04-06 12:27:00,
2013-04-06 08:39:00,26.6,8.0,30.21,SE,146,13.0,16.0,45,0.00,,,0.00,weatherlink.com 1.10,2013-04-06 12:39:00,
2013-04-06 08:54:00,26.6,8.0,30.21,South,182,5.0,11.0,45,0.00,,,0.00,weatherlink.com 1.10,2013-04-06 12:54:00,
2013-04-06 09:09:00,28.4,9.0,30.21,South,178,5.0,13.0,44,0.00,,,0.00,weatherlink.com 1.10,2013-04-06 13:09:00,
2013-04-06 09:24:00,30.2,10.0,30.20,SW,227,5.0,19.0,43,0.00,,,0.00,weatherlink.com 1.10,2013-04-06 13:24:00,
2013-04-06 09:40:00,29.4,8.0,30.22,SSW,199,5.0,11.0,41,0.00,,,0.00,weatherlink.com 1.10,2013-04-06 13:40:00,
2013-04-06 09:54:00,30.5,9.0,30.22,NE,50,6.0,10.0,41,0.00,,,0.00,weatherlink.com 1.10,2013-04-06 13:54:00,
2013-04-06 10:09:00,32.7,10.0,30.23,SW,221,5.0,17.0,38,0.00,,,0.00,weatherlink.com 1.10,2013-04-06 14:09:00,
2013-04-06 10:24:00,32.4,7.0,30.24,SE,136,2.0,9.0,35,0.00,,,0.00,weatherlink.com 1.10,2013-04-06 14:24:00,
2013-04-06 10:39:00,32.6,8.0,30.24,SW,222,4.0,18.0,35,0.00,,,0.00,weatherlink.com 1.10,2013-04-06 14:39:00,
2013-04-06 10:54:00,35.4,11.0,30.24,NNW,340,4.0,14.0,36,0.00,,,0.00,weatherlink.com 1.10,2013-04-06 14:54:00,
2013-04-06 11:09:00,36.2,13.0,30.25,SE,128,12.0,13.0,38,0.00,,,0.00,weatherlink.com 1.10,2013-04-06 15:09:00,
2013-04-06 11:24:00,37.5,11.0,30.25,WNW,284,1.0,14.0,34,0.00,,,0.00,weatherlink.com 1.10,2013-04-06 15:24:00,
2013-04-06 11:39:00,38.7,11.0,30.24,South,188,8.0,11.0,32,0.00,,,0.00,weatherlink.com 1.10,2013-04-06 15:39:00,
2013-04-06 11:54:00,37.6,10.0,30.25,WSW,242,5.0,11.0,32,0.00,,,0.00,weatherlink.com 1.10,2013-04-06 15:54:00,
2013-04-06 12:12:00,38.8,10.0,30.25,SSE,167,2.0,11.0,31,0.00,,,0.00,weatherlink.com 1.10,2013-04-06 16:12:00,
2013-04-06 12:24:00,39.3,10.0,30.25,ENE,69,0.0,16.0,30,0.00,,,0.00,weatherlink.com 1.10,2013-04-06 16:24:00,
2013-04-06 12:40:00,38.8,9.0,30.25,ESE,107,3.0,10.0,29,0.00,,,0.00,weatherlink.com 1.10,2013-04-06 16:40:00,
2013-04-06 12:54:00,39.9,13.0,30.25,South,182,4.0,11.0,33,0.00,,,0.00,weatherlink.com 1.10,2013-04-06 16:54:00,
2013-04-06 13:10:00,41.6,13.0,30.24,SSW,194,0.0,12.0,31,0.00,,,0.00,weatherlink.com 1.10,2013-04-06 17:10:00,
2013-04-06 13:25:00,41.4,11.0,30.24,North,5,1.0,12.0,29,0.00,,,0.00,weatherlink.com 1.10,2013-04-06 17:25:00,
2013-04-06 13:40:00,42.4,12.0,30.24,SW,225,0.0,10.0,29,0.00,,,0.00,weatherlink.com 1.10,2013-04-06 17:40:00,
2013-04-06 13:55:00,40.9,12.0,30.24,SSW,196,3.0,7.0,30,0.00,,,0.00,weatherlink.com 1.10,2013-04-06 17:55:00,
2013-04-06 14:10:00,43.3,14.0,30.23,SSW,200,2.0,8.0,30,0.00,,,0.00,weatherlink.com 1.10,2013-04-06 18:10:00,
2013-04-06 14:25:00,41.4,11.0,30.24,SE,134,2.0,11.0,29,0.00,,,0.00,weatherlink.com 1.10,2013-04-06 18:25:00,
2013-04-06 14:40:00,42.6,9.0,30.23,SW,231,2.0,12.0,25,0.00,,,0.00,weatherlink.com 1.10,2013-04-06 18:40:00,
2013-04-06 14:55:00,42.9,13.0,30.23,South,187,1.0,10.0,30,0.00,,,0.00,weatherlink.com 1.10,2013-04-06 18:55:00,
2013-04-06 15:10:00,44.9,12.0,30.22,SSW,207,4.0,9.0,26,0.00,,,0.00,weatherlink.com 1.10,2013-04-06 19:10:00,
2013-04-06 15:25:00,42.1,10.0,30.23,SSE,154,0.0,8.0,27,0.00,,,0.00,weatherlink.com 1.10,2013-04-06 19:25:00,
2013-04-06 15:40:00,41.9,9.0,30.22,East,92,2.0,7.0,26,0.00,,,0.00,weatherlink.com 1.10,2013-04-06 19:40:00,
2013-04-06 15:55:00,41.6,9.0,30.22,SSW,202,4.0,10.0,26,0.00,,,0.00,weatherlink.com 1.10,2013-04-06 19:55:00,
2013-04-06 16:10:00,43.7,12.0,30.21,SSW,192,5.0,6.0,28,0.00,,,0.00,weatherlink.com 1.10,2013-04-06 20:10:00,
2013-04-06 16:25:00,44.4,10.0,30.22,WSW,257,1.0,7.0,24,0.00,,,0.00,weatherlink.com 1.10,2013-04-06 20:25:00,
2013-04-06 16:40:00,44.7,9.0,30.22,SW,227,1.0,8.0,23,0.00,,,0.00,weatherlink.com 1.10,2013-04-06 20:40:00,
2013-04-06 16:55:00,44.4,10.0,30.22,SSE,153,1.0,6.0,24,0.00,,,0.00,weatherlink.com 1.10,2013-04-06 20:55:00,
2013-04-06 17:10:00,43.8,10.0,30.23,SSW,198,0.0,5.0,25,0.00,,,0.00,weatherlink.com 1.10,2013-04-06 21:10:00,
2013-04-06 17:25:00,43.4,10.0,30.23,SSW,203,0.0,7.0,26,0.00,,,0.00,weatherlink.com 1.10,2013-04-06 21:25:00,
2013-04-06 17:40:00,42.2,9.0,30.24,SW,223,0.0,5.0,25,0.00,,,0.00,weatherlink.com 1.10,2013-04-06 21:40:00,
2013-04-06 17:55:00,39.6,7.0,30.24,South,174,1.0,3.0,26,0.00,,,0.00,weatherlink.com 1.10,2013-04-06 21:55:00,
2013-04-06 18:10:00,37.3,9.0,30.24,SE,143,0.0,2.0,31,0.00,,,0.00,weatherlink.com 1.10,2013-04-06 22:10:00,
2013-04-06 18:25:00,35.8,9.0,30.23,SSW,200,0.0,4.0,33,0.00,,,0.00,weatherlink.com 1.10,2013-04-06 22:25:00,
2013-04-06 19:10:00,33.2,9.0,30.23,SSW,198,0.0,0.0,36,0.00,,,0.00,weatherlink.com 1.10,2013-04-06 23:10:00,
2013-04-06 19:25:00,32.6,7.0,30.23,SSW,198,0.0,1.0,34,0.00,,,0.00,weatherlink.com 1.10,2013-04-06 23:25:00,
2013-04-06 19:40:00,31.3,9.0,30.24,East,82,1.0,3.0,40,0.00,,,0.00,weatherlink.com 1.10,2013-04-06 23:40:00,
2013-04-06 19:55:00,31.0,10.0,30.24,East,82,0.0,2.0,42,0.00,,,0.00,weatherlink.com 1.10,2013-04-06 23:55:00,
2013-04-06 20:10:00,30.4,10.0,30.25,East,81,0.0,2.0,42,0.00,,,0.00,weatherlink.com 1.10,2013-04-07 00:10:00,
2013-04-06 20:25:00,30.1,12.0,30.25,East,81,0.0,0.0,48,0.00,,,0.00,weatherlink.com 1.10,2013-04-07 00:25:00,
2013-04-06 20:40:00,29.2,11.0,30.25,East,81,0.0,1.0,47,0.00,,,0.00,weatherlink.com 1.10,2013-04-07 00:40:00,
2013-04-06 20:55:00,29.4,11.0,30.25,East,81,0.0,3.0,47,0.00,,,0.00,weatherlink.com 1.10,2013-04-07 00:55:00,
2013-04-06 21:10:00,28.9,12.0,30.26,ENE,77,2.0,3.0,49,0.00,,,0.00,weatherlink.com 1.10,2013-04-07 01:10:00,
2013-04-06 21:25:00,28.7,12.0,30.27,ENE,59,3.0,4.0,50,0.00,,,0.00,weatherlink.com 1.10,2013-04-07 01:25:00,
2013-04-06 21:40:00,28.8,12.0,30.27,ENE,62,3.0,4.0,50,0.00,,,0.00,weatherlink.com 1.10,2013-04-07 01:40:00,
2013-04-06 21:55:00,28.7,14.0,30.26,NE,55,1.0,3.0,54,0.00,,,0.00,weatherlink.com 1.10,2013-04-07 01:55:00,
2013-04-06 22:10:00,28.9,14.0,30.25,ENE,62,3.0,4.0,53,0.00,,,0.00,weatherlink.com 1.10,2013-04-07 02:10:00,
2013-04-06 22:25:00,28.8,14.0,30.25,ENE,61,2.0,4.0,55,0.00,,,0.00,weatherlink.com 1.10,2013-04-07 02:25:00,
2013-04-06 22:40:00,29.4,14.0,30.25,ENE,59,0.0,2.0,53,0.00,,,0.00,weatherlink.com 1.10,2013-04-07 02:40:00,
2013-04-06 22:55:00,29.8,14.0,30.25,ENE,59,0.0,2.0,52,0.00,,,0.00,weatherlink.com 1.10,2013-04-07 02:55:00,
2013-04-06 23:10:00,30.0,15.0,30.24,ENE,59,0.0,2.0,53,0.00,,,0.00,weatherlink.com 1.10,2013-04-07 03:10:00,
2013-04-06 23:25:00,29.9,14.0,30.24,ENE,59,1.0,1.0,52,0.00,,,0.00,weatherlink.com 1.10,2013-04-07 03:25:00,
2013-04-06 23:40:00,30.1,15.0,30.23,ENE,59,1.0,2.0,54,0.00,,,0.00,weatherlink.com 1.10,2013-04-07 03:40:00,
2013-04-06 23:55:00,30.3,15.0,30.22,ENE,66,1.0,4.0,54,0.00,,,0.00,weatherlink.com 1.10,2013-04-07 03:55:00,